Time;durP1;ratioP1;P1;durP2;ratioP2;P2;SDS_P1;SDS_P2;PMS_P1;PMS_P2;Temp;Humidity;BMP_temperature;BMP_pressure;BME280_temperature;BME280_humidity;BME280_pressure;Samples;Min_cycle;Max_cycle;Signal;HPM_P1;HPM_P2
2021/04/27 00:02:22;;;;;;;3.90;3.00;;;;;;;;;;5007795;28;20263;-61
2021/04/27 00:04:48;;;;;;;7.23;3.67;;;;;;;;;;5000268;28;20195;-61
2021/04/27 00:07:14;;;;;;;7.17;3.40;;;;;;;;;;5003706;28;20914;-60
2021/04/27 00:09:41;;;;;;;4.93;4.00;;;;;;;;;;5009860;28;20214;-60
2021/04/27 00:12:07;;;;;;;6.53;4.97;;;;;;;;;;5000384;28;20560;-59
2021/04/27 00:14:34;;;;;;;6.07;4.03;;;;;;;;;;5005073;28;20207;-62
2021/04/27 00:17:00;;;;;;;4.00;3.17;;;;;;;;;;5004116;28;20267;-63
2021/04/27 00:19:26;;;;;;;5.67;3.00;;;;;;;;;;5002120;28;20215;-61
2021/04/27 00:21:53;;;;;;;4.17;3.73;;;;;;;;;;5000328;28;20683;-63
2021/04/27 00:24:19;;;;;;;4.80;3.10;;;;;;;;;;5002678;28;20196;-60
2021/04/27 00:26:45;;;;;;;3.37;3.07;;;;;;;;;;5011547;28;20208;-61
2021/04/27 00:29:11;;;;;;;5.00;3.30;;;;;;;;;;5005581;28;20251;-69
2021/04/27 00:31:37;;;;;;;4.40;3.20;;;;;;;;;;4999929;28;20697;-62
2021/04/27 00:34:03;;;;;;;5.43;2.97;;;;;;;;;;5009760;28;20218;-62
2021/04/27 00:36:29;;;;;;;3.87;3.20;;;;;;;;;;5005168;28;20189;-61
2021/04/27 00:38:55;;;;;;;3.90;3.40;;;;;;;;;;5000255;28;20205;-60
2021/04/27 00:41:22;;;;;;;4.67;3.43;;;;;;;;;;5002744;28;20214;-62
2021/04/27 00:43:48;;;;;;;7.77;3.30;;;;;;;;;;5000754;28;20203;-63
2021/04/27 00:46:14;;;;;;;3.97;3.57;;;;;;;;;;5004319;28;20188;-60
2021/04/27 00:48:40;;;;;;;4.03;3.33;;;;;;;;;;4999902;28;20306;-63
2021/04/27 00:51:06;;;;;;;3.83;3.43;;;;;;;;;;5004667;28;20287;-61
2021/04/27 00:53:32;;;;;;;3.50;3.20;;;;;;;;;;5002743;28;20208;-57
2021/04/27 00:55:59;;;;;;;4.40;3.50;;;;;;;;;;5003065;28;20660;-62
2021/04/27 00:58:27;;;;;;;6.17;3.20;;;;;;;;;;5004981;28;20295;-60
2021/04/27 01:00:53;;;;;;;5.60;3.67;;;;;;;;;;5004030;28;20238;-60
2021/04/27 01:03:19;;;;;;;3.93;3.47;;;;;;;;;;5001678;28;20302;-61
2021/04/27 01:05:45;;;;;;;4.53;3.10;;;;;;;;;;5007802;28;20206;-61
2021/04/27 01:08:16;;;;;;;4.30;3.53;;;;;;;;;;5000671;28;20678;-61
2021/04/27 01:11:01;;;;;;;3.40;3.10;;;;;;;;;;5006381;28;20210;-60
2021/04/27 01:13:43;;;;;;;4.67;3.00;;;;;;;;;;4999778;28;20206;-61
2021/04/27 01:16:10;;;;;;;3.60;3.30;;;;;;;;;;5003585;28;20253;-60
2021/04/27 01:18:37;;;;;;;3.47;3.10;;;;;;;;;;5006839;28;20576;-61
2021/04/27 01:21:04;;;;;;;5.53;3.50;;;;;;;;;;5001783;28;20188;-61
2021/04/27 01:23:37;;;;;;;3.50;3.30;;;;;;;;;;4998472;28;20204;-62
2021/04/27 01:26:05;;;;;;;5.00;3.10;;;;;;;;;;5004084;28;20667;-62
2021/04/27 01:28:33;;;;;;;6.70;2.90;;;;;;;;;;5005932;28;20243;-60
2021/04/27 01:30:59;;;;;;;6.17;3.47;;;;;;;;;;5001649;28;20192;-59
2021/04/27 01:33:27;;;;;;;3.33;2.90;;;;;;;;;;5002200;28;20298;-61
2021/04/27 01:35:53;;;;;;;3.80;3.40;;;;;;;;;;5005924;28;20196;-61
2021/04/27 01:38:21;;;;;;;3.07;2.73;;;;;;;;;;5006378;28;20217;-61
2021/04/27 01:40:47;;;;;;;3.30;3.00;;;;;;;;;;4999648;28;20200;-61
2021/04/27 01:43:13;;;;;;;4.73;3.13;;;;;;;;;;5005204;28;20202;-62
2021/04/27 01:45:39;;;;;;;3.30;3.00;;;;;;;;;;5003936;28;20222;-60
2021/04/27 01:48:06;;;;;;;3.20;2.90;;;;;;;;;;5002348;28;20188;-62
2021/04/27 01:50:33;;;;;;;6.10;3.60;;;;;;;;;;5002347;28;20263;-62
2021/04/27 01:52:59;;;;;;;5.60;3.40;;;;;;;;;;5003406;28;20281;-61
2021/04/27 01:55:25;;;;;;;4.30;3.23;;;;;;;;;;5010006;28;20233;-61
2021/04/27 01:57:52;;;;;;;4.17;3.30;;;;;;;;;;5003097;28;20198;-61
2021/04/27 02:00:19;;;;;;;5.30;3.47;;;;;;;;;;5001766;28;20245;-60
2021/04/27 02:02:46;;;;;;;3.50;3.20;;;;;;;;;;5001590;28;20185;-60
2021/04/27 02:05:13;;;;;;;6.53;3.43;;;;;;;;;;5009333;28;20216;-62
2021/04/27 02:07:39;;;;;;;5.50;3.70;;;;;;;;;;5003284;28;20239;-60
2021/04/27 02:10:07;;;;;;;3.93;3.30;;;;;;;;;;4998129;28;20208;-60
2021/04/27 02:12:33;;;;;;;7.13;3.50;;;;;;;;;;5009561;28;20192;-60
2021/04/27 02:14:59;;;;;;;6.43;3.70;;;;;;;;;;5003578;28;20622;-60
2021/04/27 02:17:37;;;;;;;5.10;3.90;;;;;;;;;;5005216;28;20194;-59
2021/04/27 02:20:05;;;;;;;7.73;3.90;;;;;;;;;;5010443;28;20795;-61
2021/04/27 02:22:31;;;;;;;6.13;3.90;;;;;;;;;;5006950;28;20224;-60
2021/04/27 02:24:59;;;;;;;5.83;3.70;;;;;;;;;;5008561;28;20187;-61
2021/04/27 02:27:26;;;;;;;4.10;3.70;;;;;;;;;;4998167;28;20690;-62
2021/04/27 02:29:53;;;;;;;5.80;3.63;;;;;;;;;;5006017;28;20230;-62
2021/04/27 02:32:19;;;;;;;4.23;3.60;;;;;;;;;;5001597;28;20828;-61
2021/04/27 02:34:45;;;;;;;4.13;3.73;;;;;;;;;;5010091;28;20213;-62
2021/04/27 02:37:11;;;;;;;6.67;4.50;;;;;;;;;;5007319;28;20194;-61
2021/04/27 02:39:37;;;;;;;7.50;4.70;;;;;;;;;;5007681;28;20215;-61
2021/04/27 02:42:04;;;;;;;5.57;4.70;;;;;;;;;;5005442;28;20185;-62
2021/04/27 02:44:30;;;;;;;6.67;4.17;;;;;;;;;;5003136;28;20242;-60
2021/04/27 02:46:56;;;;;;;5.27;3.73;;;;;;;;;;5006710;28;20192;-60
2021/04/27 02:49:22;;;;;;;4.43;3.70;;;;;;;;;;5006919;28;20302;-60
2021/04/27 02:51:48;;;;;;;6.53;4.00;;;;;;;;;;5005200;28;20281;-60
2021/04/27 02:54:14;;;;;;;9.63;4.23;;;;;;;;;;5005476;28;20237;-60
2021/04/27 02:56:40;;;;;;;7.73;4.57;;;;;;;;;;5011704;28;20200;-60
2021/04/27 02:59:06;;;;;;;4.57;3.60;;;;;;;;;;5000416;28;20672;-61
2021/04/27 03:01:33;;;;;;;3.97;3.67;;;;;;;;;;4999122;28;20186;-60
2021/04/27 03:03:59;;;;;;;4.97;4.30;;;;;;;;;;4998200;28;20215;-62
2021/04/27 03:06:25;;;;;;;5.07;3.93;;;;;;;;;;5002749;28;20274;-61
2021/04/27 03:08:51;;;;;;;5.20;4.03;;;;;;;;;;5002504;28;20723;-59
2021/04/27 03:11:17;;;;;;;5.73;4.00;;;;;;;;;;5005303;28;20213;-60
2021/04/27 03:13:43;;;;;;;4.40;3.93;;;;;;;;;;5008355;28;20204;-63
2021/04/27 03:16:09;;;;;;;6.43;4.33;;;;;;;;;;5006222;28;20186;-61
2021/04/27 03:18:35;;;;;;;6.27;5.40;;;;;;;;;;5000625;28;20263;-62
2021/04/27 03:21:01;;;;;;;5.17;3.93;;;;;;;;;;5004845;28;20649;-62
2021/04/27 03:23:27;;;;;;;4.93;4.40;;;;;;;;;;5004539;28;20204;-60
2021/04/27 03:25:54;;;;;;;4.57;4.10;;;;;;;;;;5002519;28;20206;-59
2021/04/27 03:28:20;;;;;;;5.20;4.10;;;;;;;;;;5005718;28;20262;-61
2021/04/27 03:30:46;;;;;;;5.40;4.63;;;;;;;;;;5005559;28;20672;-61
2021/04/27 03:33:12;;;;;;;7.10;4.90;;;;;;;;;;5007000;28;20203;-60
2021/04/27 03:35:42;;;;;;;5.27;4.23;;;;;;;;;;5003188;28;20234;-62
2021/04/27 03:38:08;;;;;;;5.67;4.80;;;;;;;;;;5003114;28;20219;-60
2021/04/27 03:40:34;;;;;;;5.33;4.80;;;;;;;;;;5009832;28;20680;-61
2021/04/27 03:43:00;;;;;;;8.60;5.33;;;;;;;;;;5003972;28;20181;-60
2021/04/27 03:45:35;;;;;;;8.77;5.53;;;;;;;;;;5001385;28;20240;-60
2021/04/27 03:48:01;;;;;;;5.73;5.10;;;;;;;;;;5004977;28;20718;-61
2021/04/27 03:50:27;;;;;;;10.87;4.80;;;;;;;;;;5001203;28;20200;-60
2021/04/27 03:52:53;;;;;;;12.20;5.03;;;;;;;;;;4995345;28;20232;-61
2021/04/27 03:55:19;;;;;;;10.20;5.00;;;;;;;;;;4997500;28;20205;-61
2021/04/27 03:57:45;;;;;;;6.57;4.73;;;;;;;;;;5004972;28;20188;-61
2021/04/27 04:00:11;;;;;;;6.77;4.43;;;;;;;;;;4999239;28;20222;-61
2021/04/27 04:02:38;;;;;;;10.43;4.37;;;;;;;;;;5002705;28;21587;-61
2021/04/27 04:05:04;;;;;;;5.47;4.43;;;;;;;;;;5011143;28;20189;-61
2021/04/27 04:07:30;;;;;;;7.30;4.77;;;;;;;;;;5005223;28;20198;-62
2021/04/27 04:09:56;;;;;;;7.53;4.43;;;;;;;;;;5003568;28;20217;-61
2021/04/27 04:12:22;;;;;;;6.70;4.43;;;;;;;;;;5006222;28;20220;-61
2021/04/27 04:14:48;;;;;;;6.80;4.50;;;;;;;;;;5001303;28;20313;-62
2021/04/27 04:17:14;;;;;;;9.73;4.70;;;;;;;;;;5001462;28;20236;-61
2021/04/27 04:19:40;;;;;;;6.90;4.77;;;;;;;;;;5012375;28;20640;-62
2021/04/27 04:22:07;;;;;;;7.47;4.60;;;;;;;;;;5006225;28;20189;-62
2021/04/27 04:24:33;;;;;;;6.00;4.43;;;;;;;;;;5007861;28;20193;-62
2021/04/27 04:27:00;;;;;;;5.53;5.00;;;;;;;;;;5003203;28;20219;-62
2021/04/27 04:29:26;;;;;;;7.90;4.50;;;;;;;;;;5003340;28;20260;-61
2021/04/27 04:31:52;;;;;;;6.10;5.10;;;;;;;;;;5007120;28;20673;-61
2021/04/27 04:34:19;;;;;;;8.80;4.60;;;;;;;;;;5007569;28;20211;-61
2021/04/27 04:36:45;;;;;;;5.87;4.40;;;;;;;;;;4997910;28;20208;-62
2021/04/27 04:39:11;;;;;;;5.73;3.90;;;;;;;;;;5003836;28;20248;-62
2021/04/27 04:41:37;;;;;;;6.27;4.03;;;;;;;;;;5005860;28;20194;-63
2021/04/27 04:44:04;;;;;;;7.10;4.60;;;;;;;;;;5004069;28;20273;-63
2021/04/27 04:46:30;;;;;;;6.87;4.50;;;;;;;;;;5006274;28;20230;-62
2021/04/27 04:48:57;;;;;;;5.50;4.50;;;;;;;;;;5005802;28;20273;-63
2021/04/27 04:51:23;;;;;;;7.20;5.03;;;;;;;;;;5008303;28;20198;-63
2021/04/27 04:53:49;;;;;;;10.70;4.77;;;;;;;;;;5003146;28;20217;-63
2021/04/27 04:56:15;;;;;;;9.07;4.50;;;;;;;;;;5004576;28;20275;-63
2021/04/27 04:58:41;;;;;;;6.57;4.63;;;;;;;;;;5001397;28;20287;-63
2021/04/27 05:01:07;;;;;;;9.57;4.27;;;;;;;;;;5000535;28;20605;-64
2021/04/27 05:03:33;;;;;;;6.27;4.30;;;;;;;;;;5003831;28;20186;-63
2021/04/27 05:05:59;;;;;;;5.40;4.57;;;;;;;;;;5000197;28;20199;-64
2021/04/27 05:08:32;;;;;;;8.63;4.40;;;;;;;;;;4999485;28;20212;-62
2021/04/27 05:10:59;;;;;;;10.13;4.20;;;;;;;;;;5003949;28;20191;-63
2021/04/27 05:13:25;;;;;;;6.77;3.90;;;;;;;;;;5003230;28;20218;-65
2021/04/27 05:15:51;;;;;;;9.13;4.50;;;;;;;;;;5002307;28;20190;-66
2021/04/27 05:18:17;;;;;;;9.83;4.67;;;;;;;;;;5002862;28;20663;-64
2021/04/27 05:20:43;;;;;;;8.57;4.13;;;;;;;;;;4999237;28;20246;-64
2021/04/27 05:23:09;;;;;;;6.33;4.30;;;;;;;;;;4999129;28;20184;-63
2021/04/27 05:25:35;;;;;;;8.43;4.40;;;;;;;;;;4995354;28;20184;-63
2021/04/27 05:28:01;;;;;;;6.07;4.20;;;;;;;;;;4998088;28;20199;-63
2021/04/27 05:30:27;;;;;;;7.33;4.57;;;;;;;;;;4999370;28;20283;-65
2021/04/27 05:32:53;;;;;;;5.77;4.10;;;;;;;;;;5002644;28;20188;-63
2021/04/27 05:35:20;;;;;;;5.80;4.60;;;;;;;;;;5003992;28;20181;-63
2021/04/27 05:37:46;;;;;;;9.97;4.93;;;;;;;;;;5003908;28;21218;-62
2021/04/27 05:40:12;;;;;;;6.80;4.50;;;;;;;;;;5008883;28;20620;-63
2021/04/27 05:42:38;;;;;;;10.07;4.80;;;;;;;;;;5010400;28;20207;-63
2021/04/27 05:45:05;;;;;;;17.03;5.90;;;;;;;;;;5007501;28;20293;-63
2021/04/27 05:47:31;;;;;;;4.80;4.23;;;;;;;;;;5008411;28;20214;-63
2021/04/27 05:49:57;;;;;;;9.23;4.57;;;;;;;;;;5008043;28;20208;-63
2021/04/27 05:52:23;;;;;;;8.53;4.50;;;;;;;;;;5005395;28;20192;-62
2021/04/27 05:54:49;;;;;;;12.57;4.73;;;;;;;;;;5005749;28;20571;-63
2021/04/27 05:57:15;;;;;;;9.73;4.50;;;;;;;;;;5010214;28;20199;-63
2021/04/27 05:59:41;;;;;;;10.50;4.83;;;;;;;;;;5008349;28;20618;-61
2021/04/27 06:02:07;;;;;;;7.83;4.20;;;;;;;;;;5008928;28;20181;-62
2021/04/27 06:04:33;;;;;;;7.37;4.47;;;;;;;;;;5001114;28;20569;-62
2021/04/27 06:06:59;;;;;;;10.00;4.53;;;;;;;;;;4999942;28;20196;-62
2021/04/27 06:09:25;;;;;;;7.23;4.23;;;;;;;;;;5010327;28;20219;-62
2021/04/27 06:11:54;;;;;;;10.67;5.03;;;;;;;;;;5017387;28;20195;-62
2021/04/27 06:14:20;;;;;;;6.17;4.60;;;;;;;;;;5002877;28;20219;-61
2021/04/27 06:16:46;;;;;;;7.37;5.10;;;;;;;;;;5007603;28;20943;-60
2021/04/27 06:19:12;;;;;;;10.20;5.00;;;;;;;;;;5003297;28;20696;-61
2021/04/27 06:21:39;;;;;;;7.37;4.93;;;;;;;;;;5003947;28;20267;-61
2021/04/27 06:24:05;;;;;;;8.30;4.87;;;;;;;;;;5002411;28;20272;-61
2021/04/27 06:26:31;;;;;;;10.63;4.97;;;;;;;;;;5005236;28;20276;-62
2021/04/27 06:28:57;;;;;;;9.73;4.60;;;;;;;;;;5001381;28;20229;-62
2021/04/27 06:31:23;;;;;;;8.77;4.50;;;;;;;;;;4993842;28;20884;-61
2021/04/27 06:33:49;;;;;;;9.57;4.57;;;;;;;;;;5010156;28;20277;-62
2021/04/27 06:36:15;;;;;;;6.67;4.73;;;;;;;;;;5006614;28;20304;-62
2021/04/27 06:38:42;;;;;;;7.23;4.93;;;;;;;;;;5002811;28;20211;-62
2021/04/27 06:41:08;;;;;;;10.37;4.50;;;;;;;;;;4998750;28;20192;-61
2021/04/27 06:43:34;;;;;;;4.70;4.17;;;;;;;;;;4993008;28;20188;-61
2021/04/27 06:46:00;;;;;;;9.23;5.07;;;;;;;;;;4995026;28;20661;-62
2021/04/27 06:48:27;;;;;;;9.70;5.00;;;;;;;;;;4999955;28;20218;-63
2021/04/27 06:50:53;;;;;;;7.23;4.50;;;;;;;;;;4996747;28;20211;-63
2021/04/27 06:53:19;;;;;;;6.67;4.30;;;;;;;;;;4997997;28;20587;-64
2021/04/27 06:55:47;;;;;;;6.83;4.83;;;;;;;;;;4994684;28;20234;-62
2021/04/27 06:58:14;;;;;;;5.80;4.53;;;;;;;;;;4996901;28;20219;-64
2021/04/27 07:00:40;;;;;;;6.87;4.67;;;;;;;;;;4998735;28;20184;-61
2021/04/27 07:03:07;;;;;;;6.87;4.93;;;;;;;;;;4997557;28;20189;-61
2021/04/27 07:05:33;;;;;;;7.57;5.23;;;;;;;;;;4994552;28;20201;-62
2021/04/27 07:07:59;;;;;;;5.97;4.50;;;;;;;;;;4998144;28;20196;-64
2021/04/27 07:10:26;;;;;;;7.50;4.72;;;;;;;;;;4997029;28;20204;-64
2021/04/27 07:12:52;;;;;;;10.10;5.10;;;;;;;;;;4996366;28;20201;-64
2021/04/27 07:15:18;;;;;;;6.32;4.40;;;;;;;;;;4996541;28;20213;-62
2021/04/27 07:17:45;;;;;;;6.25;4.68;;;;;;;;;;5000700;28;20212;-64
2021/04/27 07:20:12;;;;;;;7.18;4.28;;;;;;;;;;4995264;28;20215;-63
2021/04/27 07:22:38;;;;;;;6.97;5.20;;;;;;;;;;4996327;28;20220;-64
2021/04/27 07:25:05;;;;;;;8.50;5.10;;;;;;;;;;4998378;28;20192;-64
2021/04/27 07:27:31;;;;;;;9.25;4.80;;;;;;;;;;4993569;28;20197;-64
2021/04/27 07:29:57;;;;;;;7.70;5.22;;;;;;;;;;4995905;28;20223;-65
2021/04/27 07:32:23;;;;;;;11.57;5.20;;;;;;;;;;4991631;28;20476;-62
2021/04/27 07:34:50;;;;;;;13.63;4.50;;;;;;;;;;4986242;28;20223;-64
2021/04/27 07:37:16;;;;;;;8.10;5.25;;;;;;;;;;4997240;28;20182;-64
2021/04/27 07:39:43;;;;;;;7.50;5.18;;;;;;;;;;5001652;28;20231;-63
2021/04/27 07:42:09;;;;;;;6.90;4.97;;;;;;;;;;4996899;28;20278;-65
2021/04/27 07:44:35;;;;;;;5.47;4.93;;;;;;;;;;4983387;28;20208;-64
2021/04/27 07:47:01;;;;;;;5.53;5.03;;;;;;;;;;5003328;28;20196;-62
2021/04/27 07:49:27;;;;;;;5.95;5.10;;;;;;;;;;4991795;28;20303;-62
2021/04/27 07:51:53;;;;;;;6.93;5.50;;;;;;;;;;4985461;28;20234;-62
2021/04/27 07:54:19;;;;;;;6.95;4.97;;;;;;;;;;4993646;28;20237;-62
2021/04/27 07:56:45;;;;;;;9.63;5.53;;;;;;;;;;4991667;28;20272;-64
2021/04/27 07:59:13;;;;;;;6.65;4.75;;;;;;;;;;4997783;28;20269;-64
2021/04/27 08:01:39;;;;;;;7.63;4.80;;;;;;;;;;5007551;28;20207;-64
2021/04/27 08:04:05;;;;;;;7.50;5.40;;;;;;;;;;5000635;28;20189;-62
2021/04/27 08:06:31;;;;;;;7.68;5.90;;;;;;;;;;5011044;28;20185;-63
2021/04/27 08:08:57;;;;;;;6.20;4.57;;;;;;;;;;5002024;28;20671;-63
2021/04/27 08:11:23;;;;;;;6.43;4.90;;;;;;;;;;5003456;28;20268;-63
2021/04/27 08:13:50;;;;;;;11.00;5.55;;;;;;;;;;5008537;28;20204;-63
2021/04/27 08:16:16;;;;;;;10.00;5.40;;;;;;;;;;5002531;28;20193;-64
2021/04/27 08:18:42;;;;;;;8.10;5.25;;;;;;;;;;5003699;28;20217;-63
2021/04/27 08:21:10;;;;;;;5.30;4.80;;;;;;;;;;5005436;28;21727;-63
2021/04/27 08:23:37;;;;;;;6.18;4.90;;;;;;;;;;5005969;28;20181;-64
2021/04/27 08:26:04;;;;;;;7.00;5.75;;;;;;;;;;4999203;28;20200;-62
2021/04/27 08:28:30;;;;;;;6.10;5.50;;;;;;;;;;4999656;28;20587;-63
2021/04/27 08:30:56;;;;;;;8.20;5.63;;;;;;;;;;5004039;28;20184;-64
2021/04/27 08:33:23;;;;;;;7.25;5.35;;;;;;;;;;5005165;28;20642;-62
2021/04/27 08:35:49;;;;;;;7.15;5.20;;;;;;;;;;4997246;28;20264;-63
2021/04/27 08:38:15;;;;;;;9.93;6.10;;;;;;;;;;5000256;28;20185;-63
2021/04/27 08:40:41;;;;;;;9.00;5.97;;;;;;;;;;5008818;28;20187;-63
2021/04/27 08:43:07;;;;;;;8.82;5.75;;;;;;;;;;5001323;28;20181;-63
2021/04/27 08:45:34;;;;;;;8.68;5.30;;;;;;;;;;5006635;28;20589;-63
2021/04/27 08:48:00;;;;;;;6.22;5.60;;;;;;;;;;5007264;28;20181;-63
2021/04/27 08:50:26;;;;;;;6.72;5.85;;;;;;;;;;5003082;28;20230;-63
2021/04/27 08:52:52;;;;;;;8.38;6.43;;;;;;;;;;5006882;28;20176;-63
2021/04/27 08:55:18;;;;;;;6.25;5.30;;;;;;;;;;5005232;28;20197;-63
2021/04/27 08:57:45;;;;;;;10.68;5.80;;;;;;;;;;5002023;28;20233;-63
2021/04/27 09:00:13;;;;;;;6.10;5.40;;;;;;;;;;5006156;28;20638;-63
2021/04/27 09:02:39;;;;;;;8.13;6.38;;;;;;;;;;5005273;28;20267;-64
2021/04/27 09:05:18;;;;;;;11.15;5.82;;;;;;;;;;4998038;28;20251;-63
2021/04/27 09:07:44;;;;;;;9.18;6.10;;;;;;;;;;5001478;28;21206;-63
2021/04/27 09:10:21;;;;;;;7.28;6.57;;;;;;;;;;5011764;28;20582;-64
2021/04/27 09:12:49;;;;;;;6.97;5.50;;;;;;;;;;5006879;28;20238;-64
2021/04/27 09:15:36;;;;;;;6.95;5.93;;;;;;;;;;5008615;28;20365;-63
2021/04/27 09:18:21;;;;;;;6.22;5.63;;;;;;;;;;5009045;28;20181;-63
2021/04/27 09:20:54;;;;;;;8.18;6.07;;;;;;;;;;5009699;28;20190;-62
2021/04/27 09:23:20;;;;;;;7.10;6.35;;;;;;;;;;5005756;28;20224;-63
2021/04/27 09:26:05;;;;;;;9.57;5.55;;;;;;;;;;5002229;28;20268;-64
2021/04/27 09:28:35;;;;;;;6.45;5.75;;;;;;;;;;5002537;28;20600;-62
2021/04/27 09:31:01;;;;;;;7.25;5.90;;;;;;;;;;5000367;28;20184;-63
2021/04/27 09:33:27;;;;;;;7.20;6.47;;;;;;;;;;5004651;28;20867;-62
2021/04/27 09:35:54;;;;;;;8.43;6.07;;;;;;;;;;5004878;28;20227;-63
2021/04/27 09:38:21;;;;;;;8.05;7.13;;;;;;;;;;5003981;28;20215;-62
2021/04/27 09:40:53;;;;;;;8.57;6.32;;;;;;;;;;5005101;28;20550;-63
2021/04/27 09:43:29;;;;;;;8.73;6.00;;;;;;;;;;5006784;28;20283;-62
2021/04/27 09:45:56;;;;;;;6.85;5.95;;;;;;;;;;5005560;28;20697;-63
2021/04/27 09:48:30;;;;;;;7.47;5.78;;;;;;;;;;5004237;28;20263;-65
2021/04/27 09:50:56;;;;;;;9.43;6.75;;;;;;;;;;5004984;28;20196;-64
2021/04/27 09:53:40;;;;;;;8.40;5.95;;;;;;;;;;5007450;28;20300;-68
2021/04/27 09:56:06;;;;;;;7.47;6.53;;;;;;;;;;5018136;28;20260;-63
2021/04/27 09:58:33;;;;;;;8.48;6.22;;;;;;;;;;5001330;28;20698;-65
2021/04/27 10:00:59;;;;;;;11.77;6.05;;;;;;;;;;5009921;28;20194;-64
2021/04/27 10:03:25;;;;;;;8.95;6.47;;;;;;;;;;5007544;28;20242;-63
2021/04/27 10:05:51;;;;;;;8.45;6.68;;;;;;;;;;5005547;28;20192;-63
2021/04/27 10:08:17;;;;;;;10.95;6.55;;;;;;;;;;5007796;28;20192;-63
2021/04/27 10:10:44;;;;;;;7.88;6.35;;;;;;;;;;5012878;28;20263;-64
2021/04/27 10:13:10;;;;;;;9.80;6.57;;;;;;;;;;5006895;28;20685;-63
2021/04/27 10:15:40;;;;;;;9.10;6.93;;;;;;;;;;5005345;28;20178;-64
2021/04/27 10:18:07;;;;;;;8.95;6.70;;;;;;;;;;5006171;28;20197;-64
2021/04/27 10:20:33;;;;;;;7.88;6.70;;;;;;;;;;4998978;28;20205;-63
2021/04/27 10:23:00;;;;;;;9.60;6.43;;;;;;;;;;5010682;28;20173;-63
2021/04/27 10:25:27;;;;;;;8.60;5.70;;;;;;;;;;5004349;28;20251;-63
2021/04/27 10:27:54;;;;;;;7.32;6.63;;;;;;;;;;4999194;28;20205;-63
2021/04/27 10:30:23;;;;;;;9.55;6.60;;;;;;;;;;5009722;28;20232;-63
2021/04/27 10:33:02;;;;;;;6.57;5.97;;;;;;;;;;5002708;28;20193;-63
2021/04/27 10:35:28;;;;;;;6.88;6.18;;;;;;;;;;4999721;28;20284;-63
2021/04/27 10:37:57;;;;;;;7.85;6.15;;;;;;;;;;5005116;28;20185;-63
2021/04/27 10:40:42;;;;;;;7.43;6.63;;;;;;;;;;5005000;28;20213;-63
2021/04/27 10:43:26;;;;;;;7.65;6.93;;;;;;;;;;5005375;28;20897;-63
2021/04/27 10:45:53;;;;;;;8.35;5.97;;;;;;;;;;5003822;28;20194;-63
2021/04/27 10:48:29;;;;;;;8.75;6.72;;;;;;;;;;5009043;28;20188;-63
2021/04/27 10:50:56;;;;;;;9.18;6.47;;;;;;;;;;5006433;28;20219;-63
2021/04/27 10:53:40;;;;;;;8.20;6.88;;;;;;;;;;5002116;28;20204;-63
2021/04/27 10:56:06;;;;;;;9.70;7.15;;;;;;;;;;4998627;28;20906;-63
2021/04/27 10:58:43;;;;;;;7.63;6.45;;;;;;;;;;4999610;28;20205;-62
2021/04/27 11:01:19;;;;;;;8.20;6.40;;;;;;;;;;5008590;28;20288;-63
2021/04/27 11:03:49;;;;;;;8.35;6.75;;;;;;;;;;5002746;28;20196;-62
2021/04/27 11:06:16;;;;;;;7.38;6.25;;;;;;;;;;5002372;28;20743;-62
2021/04/27 11:08:52;;;;;;;8.73;5.95;;;;;;;;;;4997503;28;20220;-62
2021/04/27 11:11:25;;;;;;;7.07;6.40;;;;;;;;;;4988500;28;20510;-61
2021/04/27 11:13:51;;;;;;;7.72;6.63;;;;;;;;;;4995366;28;20789;-64
2021/04/27 11:16:25;;;;;;;6.97;6.38;;;;;;;;;;4991957;28;20189;-63
2021/04/27 11:18:51;;;;;;;7.28;6.43;;;;;;;;;;4984554;28;20255;-62
2021/04/27 11:21:17;;;;;;;8.80;6.63;;;;;;;;;;4982563;28;20197;-63
2021/04/27 11:23:43;;;;;;;11.57;7.35;;;;;;;;;;4992196;28;20231;-62
2021/04/27 11:26:28;;;;;;;7.38;6.70;;;;;;;;;;4983469;28;20250;-63
2021/04/27 11:28:55;;;;;;;7.93;6.80;;;;;;;;;;4987342;28;20689;-64
2021/04/27 11:31:21;;;;;;;8.07;6.28;;;;;;;;;;4988668;28;20189;-62
2021/04/27 11:34:00;;;;;;;7.55;6.65;;;;;;;;;;4990286;28;20209;-63
2021/04/27 11:36:36;;;;;;;7.45;6.57;;;;;;;;;;4987093;28;20292;-62
2021/04/27 11:39:09;;;;;;;8.25;6.68;;;;;;;;;;4996926;28;20312;-62
2021/04/27 11:41:44;;;;;;;10.00;7.20;;;;;;;;;;5008244;28;20730;-62
2021/04/27 11:44:11;;;;;;;11.52;6.72;;;;;;;;;;4999024;28;20670;-63
2021/04/27 11:46:53;;;;;;;8.32;6.40;;;;;;;;;;5006323;28;20192;-62
2021/04/27 11:49:19;;;;;;;8.02;6.55;;;;;;;;;;5004888;28;20221;-62
2021/04/27 11:51:45;;;;;;;7.20;6.47;;;;;;;;;;5010204;28;20196;-62
2021/04/27 11:54:12;;;;;;;8.00;6.32;;;;;;;;;;5001370;28;20193;-63
2021/04/27 11:56:51;;;;;;;9.15;8.20;;;;;;;;;;4999969;28;20280;-62
2021/04/27 11:59:20;;;;;;;9.98;6.97;;;;;;;;;;5003022;28;20197;-63
2021/04/27 12:01:46;;;;;;;7.80;6.85;;;;;;;;;;5011704;28;20264;-62
2021/04/27 12:04:13;;;;;;;7.32;6.63;;;;;;;;;;5001497;28;20272;-61
2021/04/27 12:06:39;;;;;;;7.22;6.13;;;;;;;;;;5003262;28;20271;-62
2021/04/27 12:09:06;;;;;;;7.13;6.10;;;;;;;;;;5007763;28;20291;-62
2021/04/27 12:11:36;;;;;;;6.90;6.00;;;;;;;;;;5002599;28;20715;-62
2021/04/27 12:14:13;;;;;;;5.90;5.40;;;;;;;;;;5003726;28;20589;-62
2021/04/27 12:16:41;;;;;;;8.32;5.50;;;;;;;;;;5002441;28;20679;-62
2021/04/27 12:19:14;;;;;;;8.50;5.45;;;;;;;;;;5003132;28;20680;-62
2021/04/27 12:21:48;;;;;;;9.82;6.47;;;;;;;;;;5002517;28;20185;-62
2021/04/27 12:24:14;;;;;;;6.82;5.40;;;;;;;;;;5000307;28;20283;-62
2021/04/27 12:26:43;;;;;;;7.88;5.65;;;;;;;;;;5006722;28;20192;-62
2021/04/27 12:29:10;;;;;;;7.07;6.10;;;;;;;;;;5002384;28;20216;-62
2021/04/27 12:31:37;;;;;;;7.68;6.00;;;;;;;;;;5003787;28;20296;-62
2021/04/27 12:34:06;;;;;;;6.38;5.65;;;;;;;;;;5004165;28;20203;-62
2021/04/27 12:36:36;;;;;;;9.60;5.90;;;;;;;;;;5005791;28;20188;-64
2021/04/27 12:39:06;;;;;;;6.32;5.55;;;;;;;;;;5002882;28;20209;-62
2021/04/27 12:41:42;;;;;;;6.57;5.88;;;;;;;;;;5009345;28;20189;-62
2021/04/27 12:44:26;;;;;;;6.50;5.93;;;;;;;;;;5004244;28;20181;-62
2021/04/27 12:46:53;;;;;;;9.25;5.60;;;;;;;;;;5002750;28;20559;-62
2021/04/27 12:49:26;;;;;;;8.27;5.90;;;;;;;;;;5003121;28;20196;-62
2021/04/27 12:51:56;;;;;;;8.15;6.22;;;;;;;;;;5002650;28;20215;-62
2021/04/27 12:54:27;;;;;;;7.10;6.40;;;;;;;;;;5000314;28;20205;-64
2021/04/27 12:57:03;;;;;;;8.10;5.65;;;;;;;;;;4996297;28;20212;-63
2021/04/27 12:59:30;;;;;;;7.82;5.35;;;;;;;;;;5010353;28;20204;-64
2021/04/27 13:02:15;;;;;;;6.97;5.60;;;;;;;;;;5000993;28;20679;-63
2021/04/27 13:04:45;;;;;;;5.60;4.22;;;;;;;;;;5004517;28;20192;-63
2021/04/27 13:07:24;;;;;;;5.68;4.97;;;;;;;;;;4995573;28;20185;-62
2021/04/27 13:09:51;;;;;;;8.38;5.72;;;;;;;;;;4999640;28;20208;-62
2021/04/27 13:12:17;;;;;;;5.93;5.32;;;;;;;;;;5001055;28;20229;-62
2021/04/27 13:14:46;;;;;;;7.97;5.55;;;;;;;;;;4999138;28;20197;-61
2021/04/27 13:17:31;;;;;;;5.70;5.15;;;;;;;;;;5007664;28;20186;-61
2021/04/27 13:20:00;;;;;;;9.70;5.32;;;;;;;;;;5000782;28;20204;-63
2021/04/27 13:22:48;;;;;;;7.00;5.72;;;;;;;;;;5000981;28;20235;-62
2021/04/27 13:25:15;;;;;;;9.25;6.10;;;;;;;;;;5001650;28;20239;-64
2021/04/27 13:27:49;;;;;;;10.00;6.40;;;;;;;;;;4996642;28;20192;-62
2021/04/27 13:30:18;;;;;;;7.40;5.47;;;;;;;;;;4996968;28;20236;-62
2021/04/27 13:32:50;;;;;;;6.20;5.68;;;;;;;;;;4998979;28;20272;-64
2021/04/27 13:35:20;;;;;;;7.28;5.22;;;;;;;;;;5010632;28;20217;-62
2021/04/27 13:37:47;;;;;;;6.63;5.40;;;;;;;;;;5001932;28;20219;-63
2021/04/27 13:40:13;;;;;;;7.20;5.38;;;;;;;;;;4994759;28;20207;-63
2021/04/27 13:42:39;;;;;;;8.00;5.38;;;;;;;;;;5004881;28;20257;-63
2021/04/27 13:45:06;;;;;;;7.68;5.57;;;;;;;;;;4998998;28;20660;-62
2021/04/27 13:47:33;;;;;;;6.93;5.80;;;;;;;;;;5002964;28;20265;-63
2021/04/27 13:49:59;;;;;;;6.25;4.65;;;;;;;;;;5003579;28;20218;-63
2021/04/27 13:52:25;;;;;;;4.72;4.32;;;;;;;;;;5003281;28;20196;-64
2021/04/27 13:54:53;;;;;;;5.20;4.80;;;;;;;;;;5008656;28;20242;-64
2021/04/27 13:57:19;;;;;;;6.03;4.72;;;;;;;;;;5009440;28;20184;-64
2021/04/27 13:59:45;;;;;;;7.63;4.72;;;;;;;;;;5000907;28;20592;-64
2021/04/27 14:02:11;;;;;;;5.30;4.22;;;;;;;;;;5004241;28;20197;-63
2021/04/27 14:04:37;;;;;;;8.55;5.03;;;;;;;;;;5011365;28;20178;-64
2021/04/27 14:07:03;;;;;;;7.78;4.95;;;;;;;;;;5000077;28;20790;-64
2021/04/27 14:09:29;;;;;;;9.05;5.65;;;;;;;;;;5013948;28;20212;-64
2021/04/27 14:11:55;;;;;;;7.55;5.55;;;;;;;;;;5007318;28;20181;-63
2021/04/27 14:14:21;;;;;;;7.15;4.95;;;;;;;;;;5005441;28;20197;-64
2021/04/27 14:16:47;;;;;;;9.00;6.30;;;;;;;;;;5000244;28;20699;-63
2021/04/27 14:19:13;;;;;;;9.35;5.70;;;;;;;;;;5004700;28;20604;-64
2021/04/27 14:21:39;;;;;;;8.77;6.35;;;;;;;;;;5003076;28;20207;-63
2021/04/27 14:24:05;;;;;;;9.73;6.07;;;;;;;;;;5001002;28;20196;-63
2021/04/27 14:26:31;;;;;;;6.43;5.65;;;;;;;;;;5013528;28;20308;-64
2021/04/27 14:28:57;;;;;;;6.85;6.07;;;;;;;;;;5006748;28;20362;-62
2021/04/27 14:31:23;;;;;;;8.13;5.63;;;;;;;;;;5005556;28;20193;-63
2021/04/27 14:33:49;;;;;;;6.97;6.20;;;;;;;;;;5006655;28;20215;-62
2021/04/27 14:36:15;;;;;;;6.25;5.65;;;;;;;;;;4998686;28;20304;-62
2021/04/27 14:38:42;;;;;;;7.70;5.28;;;;;;;;;;5001172;28;20198;-63
2021/04/27 14:41:08;;;;;;;6.18;5.32;;;;;;;;;;5004885;28;20177;-63
2021/04/27 14:43:34;;;;;;;5.97;4.97;;;;;;;;;;5004675;28;20570;-63
2021/04/27 14:46:01;;;;;;;14.82;5.55;;;;;;;;;;5002111;28;20273;-62
2021/04/27 14:48:27;;;;;;;7.03;5.80;;;;;;;;;;4999372;28;20229;-62